Time;durP1;ratioP1;P1;durP2;ratioP2;P2;SDS_P1;SDS_P2;PMS_P1;PMS_P2;Temp;Humidity;BMP_temperature;BMP_pressure;BME280_temperature;BME280_humidity;BME280_pressure;Samples;Min_cycle;Max_cycle;Signal;HPM_P1;HPM_P2
2023/12/18 00:06:09;;;;;;;11.57;8.50;;;;;;;20.79;53.05;102167.50;41716262;28;20037;-76
2023/12/18 00:26:10;;;;;;;11.30;8.25;;;;;;;20.76;53.21;102172.91;41711120;28;20045;-75
2023/12/18 00:46:11;;;;;;;10.57;8.07;;;;;;;20.72;53.02;102157.31;41710985;28;20041;-76
2023/12/18 01:06:11;;;;;;;12.02;7.95;;;;;;;20.72;52.87;102175.75;41707759;28;20053;-77
2023/12/18 01:26:12;;;;;;;9.93;7.75;;;;;;;20.70;52.72;102161.78;41723011;28;20040;-76
2023/12/18 01:46:18;;;;;;;8.63;7.45;;;;;;;20.63;52.68;102141.00;41721347;28;20500;-76
2023/12/18 02:06:19;;;;;;;8.70;7.70;;;;;;;20.60;53.11;102148.19;41699233;28;20068;-76
2023/12/18 02:26:20;;;;;;;9.15;7.40;;;;;;;20.54;52.69;102119.53;41701045;28;20038;-75
2023/12/18 02:46:21;;;;;;;9.68;7.45;;;;;;;20.53;52.41;102104.66;41677660;28;20061;-75
2023/12/18 03:06:21;;;;;;;9.15;7.25;;;;;;;20.46;52.47;102138.31;41696347;28;20407;-76
2023/12/18 03:26:22;;;;;;;9.82;7.63;;;;;;;20.45;52.49;102126.09;41688943;28;20054;-76
2023/12/18 03:46:24;;;;;;;8.23;7.28;;;;;;;20.42;52.46;102105.16;41703490;28;20143;-76
2023/12/18 04:06:25;;;;;;;8.60;7.10;;;;;;;20.35;52.66;102101.13;41708391;28;20054;-76
2023/12/18 04:26:25;;;;;;;8.20;6.82;;;;;;;20.29;52.55;102086.50;41702475;28;20049;-76
2023/12/18 04:46:25;;;;;;;8.48;7.38;;;;;;;20.33;52.40;102084.56;41699390;28;20187;-77
2023/12/18 05:06:28;;;;;;;9.52;7.35;;;;;;;20.36;52.02;102090.53;41689142;28;20179;-83
2023/12/18 05:26:29;;;;;;;13.65;8.55;;;;;;;20.60;53.05;102075.38;41723325;28;20049;-82
2023/12/18 05:46:30;;;;;;;16.45;9.95;;;;;;;21.12;53.20;102084.28;41727509;28;20047;-91
2023/12/18 06:06:30;;;;;;;30.05;11.45;;;;;;;21.14;50.76;102090.34;41722917;28;20069;-76
2023/12/18 06:26:30;;;;;;;19.45;11.50;;;;;;;21.28;49.76;102115.97;41706797;28;20121;-79
2023/12/18 06:46:33;;;;;;;18.05;10.10;;;;;;;21.64;49.89;102112.44;41696405;28;20061;-78
2023/12/18 07:06:34;;;;;;;15.07;9.73;;;;;;;21.76;49.40;102126.72;41738657;28;20041;-83
2023/12/18 07:26:34;;;;;;;14.02;9.15;;;;;;;21.69;49.38;102128.84;41784384;28;20103;-82
2023/12/18 07:46:34;;;;;;;20.15;10.45;;;;;;;21.87;50.23;102113.00;41751937;28;20392;-81
2023/12/18 08:06:35;;;;;;;29.08;12.10;;;;;;;21.85;48.68;102114.84;41738600;28;20093;-78
2023/12/18 08:26:35;;;;;;;28.48;11.75;;;;;;;21.83;50.86;102109.66;41690995;28;20041;-75
2023/12/18 08:46:36;;;;;;;18.08;11.75;;;;;;;21.70;49.11;102116.50;41691047;28;20049;-77
2023/12/18 09:06:36;;;;;;;23.77;12.40;;;;;;;21.74;49.50;102112.81;41706012;28;20048;-75
2023/12/18 09:26:37;;;;;;;21.45;12.85;;;;;;;21.94;48.76;102092.44;41695741;28;20072;-75
2023/12/18 09:46:37;;;;;;;18.20;12.02;;;;;;;22.04;48.83;102057.53;41723753;28;20020;-75
2023/12/18 10:06:39;;;;;;;19.90;12.40;;;;;;;22.19;48.21;102044.44;41711016;28;20056;-76
2023/12/18 10:26:39;;;;;;;20.33;11.15;;;;;;;22.30;48.10;102028.00;41707109;28;20046;-75
2023/12/18 10:46:41;;;;;;;17.98;12.82;;;;;;;21.91;44.00;102015.16;41693021;28;20049;-72
2023/12/18 11:06:43;;;;;;;19.42;12.82;;;;;;;22.21;44.53;101988.00;41710896;28;20069;-70
2023/12/18 11:26:45;;;;;;;17.42;11.27;;;;;;;22.52;46.11;101951.13;41691463;28;20052;-70
2023/12/18 11:46:50;;;;;;;15.23;10.65;;;;;;;22.60;46.38;101948.03;41683648;28;20492;-71
2023/12/18 12:06:50;;;;;;;25.08;10.40;;;;;;;22.64;47.72;101918.75;41720787;28;20064;-71
2023/12/18 12:26:51;;;;;;;20.90;9.98;;;;;;;22.76;48.45;101893.38;41727030;28;20041;-70
2023/12/18 12:46:52;;;;;;;15.95;10.27;;;;;;;22.71;48.33;101858.47;41741341;28;20041;-68
2023/12/18 13:06:52;;;;;;;15.40;10.02;;;;;;;22.66;48.09;101836.78;41710907;28;20061;-69
2023/12/18 13:26:53;;;;;;;17.40;10.18;;;;;;;22.50;47.79;101829.78;41704189;28;20486;-72
2023/12/18 13:46:53;;;;;;;16.48;9.45;;;;;;;22.32;48.33;101818.50;41691266;28;20050;-73
2023/12/18 14:06:53;;;;;;;14.13;10.35;;;;;;;22.30;48.28;101809.84;41694622;28;20523;-72
2023/12/18 14:26:54;;;;;;;14.27;9.77;;;;;;;22.16;49.06;101800.09;41729318;28;20041;-75
2023/12/18 14:46:54;;;;;;;13.57;9.68;;;;;;;22.10;49.43;101804.91;41743897;28;20567;-76
2023/12/18 15:06:55;;;;;;;15.57;10.32;;;;;;;21.71;45.26;101831.69;41754669;28;20163;-78
2023/12/18 15:26:55;;;;;;;13.95;9.65;;;;;;;21.77;48.20;101830.50;41723299;28;20033;-78
2023/12/18 15:46:56;;;;;;;15.13;9.55;;;;;;;21.74;48.56;101813.06;41772289;28;20048;-75
2023/12/18 16:06:59;;;;;;;20.42;11.43;;;;;;;21.68;46.92;101820.47;41722553;28;20049;-72
2023/12/18 16:26:59;;;;;;;15.50;10.25;;;;;;;21.73;48.34;101813.16;41730628;28;20051;-71
2023/12/18 16:47:02;;;;;;;16.83;10.05;;;;;;;21.65;48.46;101818.03;41739983;28;20056;-75
2023/12/18 17:07:02;;;;;;;13.60;9.57;;;;;;;21.53;48.68;101801.94;41750290;28;20057;-72
2023/12/18 17:27:03;;;;;;;20.80;11.80;;;;;;;21.30;47.85;101789.19;41753400;28;20045;-73
2023/12/18 17:47:04;;;;;;;15.23;10.23;;;;;;;21.50;48.95;101764.38;41744441;28;20049;-75
2023/12/18 18:07:05;;;;;;;15.73;10.07;;;;;;;21.60;50.66;101786.66;41767257;28;20054;-80
2023/12/18 18:27:06;;;;;;;17.63;9.57;;;;;;;21.54;51.23;101777.25;41761461;28;20103;-78
2023/12/18 18:47:07;;;;;;;12.60;9.15;;;;;;;21.57;50.81;101763.94;41729613;28;20719;-76
2023/12/18 19:07:08;;;;;;;11.88;9.00;;;;;;;21.47;51.24;101769.78;41729114;28;20050;-74
2023/12/18 19:27:09;;;;;;;18.10;11.20;;;;;;;21.60;52.57;101741.84;41751822;28;20064;-74
2023/12/18 19:47:10;;;;;;;19.08;14.07;;;;;;;21.53;55.52;101740.47;41745534;28;20049;-73
2023/12/18 20:07:11;;;;;;;18.92;13.57;;;;;;;21.52;55.20;101728.22;41750577;28;20061;-75
2023/12/18 20:27:19;;;;;;;20.17;14.48;;;;;;;21.17;52.87;101712.66;41745919;28;20047;-76
2023/12/18 20:47:20;;;;;;;20.20;15.23;;;;;;;21.17;52.39;101699.47;41727814;28;20044;-74
2023/12/18 21:07:20;;;;;;;20.63;14.98;;;;;;;21.13;52.51;101700.56;41747288;28;20127;-74
2023/12/18 21:27:21;;;;;;;18.00;13.45;;;;;;;21.03;52.86;101711.63;41723291;28;21108;-74
2023/12/18 21:47:23;;;;;;;18.25;14.07;;;;;;;20.96;53.19;101705.00;41719028;28;20092;-74
2023/12/18 22:07:23;;;;;;;17.77;13.73;;;;;;;20.93;53.70;101692.00;41726880;28;20099;-74
2023/12/18 22:27:24;;;;;;;17.33;13.23;;;;;;;20.83;53.56;101678.50;41728949;28;20049;-75
2023/12/18 22:47:24;;;;;;;17.83;13.45;;;;;;;20.84;53.06;101682.84;41720160;28;20407;-75
2023/12/18 23:07:24;;;;;;;16.58;12.80;;;;;;;20.78;53.06;101677.91;41713818;28;20045;-76
2023/12/18 23:27:25;;;;;;;17.80;13.23;;;;;;;20.76;53.20;101663.97;41694305;28;20042;-72
2023/12/18 23:47:25;;;;;;;17.27;13.10;;;;;;;20.70;53.13;101640.59;41719001;28;20045;-73
